Time,TemperatureF,DewpointF,PressureIn,WindDirection,WindDirectionDegrees,WindSpeedMPH,WindSpeedGustMPH,Humidity,HourlyPrecipIn,Conditions,Clouds,dailyrainin,SoftwareType,DateUTC
2013-02-22 00:04:00,-3.7,-8.0,29.36,East,101,0.0,0.0,81,0.00,,,0.00,LWC V2.00 B2112,2013-02-22 09:04:00,
2013-02-22 00:09:00,-3.7,-8.3,29.36,SE,134,0.0,0.0,80,0.00,,,0.00,LWC V2.00 B2112,2013-02-22 09:09:00,
2013-02-22 00:14:00,-3.7,-8.0,29.36,SE,140,0.0,0.0,81,0.00,,,0.00,LWC V2.00 B2112,2013-02-22 09:14:00,
2013-02-22 00:19:00,-3.7,-8.0,29.36,SSE,160,0.0,0.0,81,0.00,,,0.00,LWC V2.00 B2112,2013-02-22 09:19:00,
2013-02-22 00:24:00,-3.7,-8.3,29.37,SSE,153,0.0,0.0,80,0.00,,,0.00,LWC V2.00 B2112,2013-02-22 09:24:00,
2013-02-22 00:29:00,-3.8,-8.4,29.37,SSE,153,0.0,0.0,80,0.00,,,0.00,LWC V2.00 B2112,2013-02-22 09:29:00,
2013-02-22 00:34:00,-3.9,-8.2,29.37,SSE,153,0.0,0.0,81,0.00,,,0.00,LWC V2.00 B2112,2013-02-22 09:34:00,
2013-02-22 00:39:00,-3.9,-8.2,29.37,SSE,153,0.0,0.0,81,0.00,,,0.00,LWC V2.00 B2112,2013-02-22 09:39:00,
2013-02-22 00:44:00,-4.0,-8.3,29.37,WNW,294,0.0,0.0,81,0.00,,,0.00,LWC V2.00 B2112,2013-02-22 09:44:00,
2013-02-22 00:49:00,-4.0,-8.3,29.37,SE,144,0.0,0.0,81,0.00,,,0.00,LWC V2.00 B2112,2013-02-22 09:49:00,
2013-02-22 00:54:00,-4.1,-8.4,29.37,East,101,0.0,0.0,81,0.00,,,0.00,LWC V2.00 B2112,2013-02-22 09:54:00,
2013-02-22 00:59:00,-4.2,-8.5,29.37,SE,132,0.0,0.0,81,0.00,,,0.00,LWC V2.00 B2112,2013-02-22 09:59:00,
2013-02-22 01:04:00,-4.3,-8.6,29.37,SE,136,0.0,0.0,81,0.00,,,0.00,LWC V2.00 B2112,2013-02-22 10:04:00,
2013-02-22 01:09:00,-4.3,-8.6,29.37,ESE,107,0.0,0.0,81,0.00,,,0.00,LWC V2.00 B2112,2013-02-22 10:09:00,
2013-02-22 01:14:00,-4.4,-8.5,29.38,SW,228,0.0,0.0,82,0.00,,,0.00,LWC V2.00 B2112,2013-02-22 10:14:00,
2013-02-22 01:19:00,-4.4,-8.5,29.38,SSW,203,0.0,0.0,82,0.00,,,0.00,LWC V2.00 B2112,2013-02-22 10:19:00,
2013-02-22 01:24:00,-4.5,-8.6,29.38,SSW,203,0.0,0.0,82,0.00,,,0.00,LWC V2.00 B2112,2013-02-22 10:24:00,
2013-02-22 01:29:00,-4.5,-8.6,29.38,SSW,203,0.0,0.0,82,0.00,,,0.00,LWC V2.00 B2112,2013-02-22 10:29:00,
2013-02-22 01:34:00,-4.6,-8.7,29.38,SSW,203,0.0,0.0,82,0.00,,,0.00,LWC V2.00 B2112,2013-02-22 10:34:00,
2013-02-22 01:39:00,-4.7,-8.8,29.38,SSW,205,0.0,0.0,82,0.00,,,0.00,LWC V2.00 B2112,2013-02-22 10:39:00,
2013-02-22 01:44:00,-4.8,-8.6,29.38,SSW,203,0.0,0.0,83,0.00,,,0.00,LWC V2.00 B2112,2013-02-22 10:44:00,
2013-02-22 01:49:00,-4.8,-8.6,29.39,ESE,113,0.0,0.0,83,0.00,,,0.00,LWC V2.00 B2112,2013-02-22 10:49:00,
2013-02-22 01:54:00,-4.9,-9.0,29.39,ESE,121,0.0,0.0,82,0.00,,,0.00,LWC V2.00 B2112,2013-02-22 10:54:00,
2013-02-22 01:59:00,-5.0,-9.1,29.38,SW,218,0.0,0.0,82,0.00,,,0.00,LWC V2.00 B2112,2013-02-22 10:59:00,
2013-02-22 02:04:00,-5.1,-8.9,29.39,SW,219,0.0,0.0,83,0.00,,,0.00,LWC V2.00 B2112,2013-02-22 11:04:00,
2013-02-22 02:09:00,-5.1,-8.9,29.39,SSW,207,0.0,0.0,83,0.00,,,0.00,LWC V2.00 B2112,2013-02-22 11:09:00,
2013-02-22 02:14:00,-5.1,-8.9,29.39,SSW,207,0.0,0.0,83,0.00,,,0.00,LWC V2.00 B2112,2013-02-22 11:14:00,
2013-02-22 02:19:00,-5.2,-9.0,29.39,SSW,207,0.0,0.0,83,0.00,,,0.00,LWC V2.00 B2112,2013-02-22 11:19:00,
2013-02-22 02:24:00,-5.3,-9.1,29.39,SSW,207,0.0,0.0,83,0.00,,,0.00,LWC V2.00 B2112,2013-02-22 11:24:00,
2013-02-22 02:34:00,-5.5,-9.3,29.40,SSW,207,0.0,0.0,83,0.00,,,0.00,LWC V2.00 B2112,2013-02-22 11:34:00,
2013-02-22 02:39:00,-5.6,-9.4,29.40,SSW,207,0.0,0.0,83,0.00,,,0.00,LWC V2.00 B2112,2013-02-22 11:39:00,
2013-02-22 02:44:00,-5.7,-9.5,29.40,SSW,207,0.0,0.0,83,0.00,,,0.00,LWC V2.00 B2112,2013-02-22 11:44:00,
2013-02-22 02:49:00,-5.8,-9.6,29.40,SSW,207,0.0,0.0,83,0.00,,,0.00,LWC V2.00 B2112,2013-02-22 11:49:00,
2013-02-22 02:54:00,-5.9,-9.7,29.40,SSW,207,0.0,0.0,83,0.00,,,0.00,LWC V2.00 B2112,2013-02-22 11:54:00,
2013-02-22 02:59:00,-5.9,-9.7,29.41,SSW,207,0.0,0.0,83,0.00,,,0.00,LWC V2.00 B2112,2013-02-22 11:59:00,
2013-02-22 03:04:00,-6.1,-9.9,29.41,SSW,208,0.0,0.0,83,0.00,,,0.00,LWC V2.00 B2112,2013-02-22 12:04:00,
2013-02-22 03:09:00,-6.2,-10.0,29.41,SSW,207,0.0,0.0,83,0.00,,,0.00,LWC V2.00 B2112,2013-02-22 12:09:00,
2013-02-22 03:14:00,-6.3,-10.1,29.41,SSW,207,0.0,0.0,83,0.00,,,0.00,LWC V2.00 B2112,2013-02-22 12:14:00,
2013-02-22 03:19:00,-6.3,-10.1,29.41,SSW,208,0.0,0.0,83,0.00,,,0.00,LWC V2.00 B2112,2013-02-22 12:19:00,
2013-02-22 03:24:00,-6.3,-10.1,29.41,SSW,207,0.0,0.0,83,0.00,,,0.00,LWC V2.00 B2112,2013-02-22 12:24:00,
2013-02-22 03:29:00,-6.5,-10.3,29.41,SSW,208,0.0,0.0,83,0.00,,,0.00,LWC V2.00 B2112,2013-02-22 12:29:00,
2013-02-22 03:34:00,-6.5,-10.3,29.41,SSW,207,0.0,0.0,83,0.00,,,0.00,LWC V2.00 B2112,2013-02-22 12:34:00,
2013-02-22 03:39:00,-6.8,-10.6,29.41,SSW,207,0.0,0.0,83,0.00,,,0.00,LWC V2.00 B2112,2013-02-22 12:39:00,
2013-02-22 03:44:00,-7.0,-10.8,29.41,SSW,207,0.0,0.0,83,0.00,,,0.00,LWC V2.00 B2112,2013-02-22 12:44:00,
2013-02-22 03:49:00,-7.1,-10.9,29.42,SSW,207,0.0,0.0,83,0.00,,,0.00,LWC V2.00 B2112,2013-02-22 12:49:00,
2013-02-22 03:54:00,-7.4,-11.4,29.42,SSW,207,0.0,0.0,82,0.00,,,0.00,LWC V2.00 B2112,2013-02-22 12:54:00,
2013-02-22 03:59:00,-7.6,-11.6,29.42,SSW,207,0.0,0.0,82,0.00,,,0.00,LWC V2.00 B2112,2013-02-22 12:59:00,
2013-02-22 04:04:00,-7.9,-11.9,29.42,SSW,208,0.0,0.0,82,0.00,,,0.00,LWC V2.00 B2112,2013-02-22 13:04:00,
2013-02-22 04:09:00,-8.0,-11.8,29.42,SSW,207,0.0,0.0,83,0.00,,,0.00,LWC V2.00 B2112,2013-02-22 13:09:00,
2013-02-22 04:14:00,-8.0,-11.8,29.42,SSW,207,0.0,0.0,83,0.00,,,0.00,LWC V2.00 B2112,2013-02-22 13:14:00,
2013-02-22 04:19:00,-8.3,-12.3,29.43,SSW,207,0.0,0.0,82,0.00,,,0.00,LWC V2.00 B2112,2013-02-22 13:19:00,
2013-02-22 04:24:00,-8.8,-12.8,29.43,SSW,207,0.0,0.0,82,0.00,,,0.00,LWC V2.00 B2112,2013-02-22 13:24:00,
2013-02-22 04:29:00,-9.1,-13.1,29.43,SSW,207,0.0,0.0,82,0.00,,,0.00,LWC V2.00 B2112,2013-02-22 13:29:00,
2013-02-22 04:34:00,-9.4,-13.4,29.43,SSW,207,0.0,0.0,82,0.00,,,0.00,LWC V2.00 B2112,2013-02-22 13:34:00,
2013-02-22 04:39:00,-9.6,-13.6,29.44,SSW,207,0.0,0.0,82,0.00,,,0.00,LWC V2.00 B2112,2013-02-22 13:39:00,
2013-02-22 04:44:00,-9.5,-13.2,29.44,SSW,207,0.0,0.0,83,0.00,,,0.00,LWC V2.00 B2112,2013-02-22 13:44:00,
2013-02-22 04:49:00,-9.3,-13.0,29.44,SSW,207,0.0,0.0,83,0.00,,,0.00,LWC V2.00 B2112,2013-02-22 13:49:00,
2013-02-22 04:54:00,-9.1,-12.8,29.44,SSW,207,0.0,0.0,83,0.00,,,0.00,LWC V2.00 B2112,2013-02-22 13:54:00,
2013-02-22 04:59:00,-9.1,-12.8,29.44,SSW,207,0.0,0.0,83,0.00,,,0.00,LWC V2.00 B2112,2013-02-22 13:59:00,
2013-02-22 05:04:00,-9.0,-12.7,29.44,SSW,207,0.0,0.0,83,0.00,,,0.00,LWC V2.00 B2112,2013-02-22 14:04:00,
2013-02-22 05:09:00,-8.8,-12.5,29.44,SSW,207,0.0,0.0,83,0.00,,,0.00,LWC V2.00 B2112,2013-02-22 14:09:00,
2013-02-22 05:14:00,-8.7,-12.2,29.44,SSW,207,0.0,0.0,84,0.00,,,0.00,LWC V2.00 B2112,2013-02-22 14:14:00,
2013-02-22 05:19:00,-8.6,-12.3,29.45,SSW,207,0.0,0.0,83,0.00,,,0.00,LWC V2.00 B2112,2013-02-22 14:19:00,
2013-02-22 05:24:00,-8.6,-12.3,29.45,SSW,207,0.0,0.0,83,0.00,,,0.00,LWC V2.00 B2112,2013-02-22 14:24:00,
2013-02-22 05:29:00,-8.5,-12.0,29.45,SSW,207,0.0,0.0,84,0.00,,,0.00,LWC V2.00 B2112,2013-02-22 14:29:00,
2013-02-22 05:34:00,-8.4,-11.9,29.45,SSW,208,0.0,0.0,84,0.00,,,0.00,LWC V2.00 B2112,2013-02-22 14:34:00,
2013-02-22 05:39:00,-8.5,-12.0,29.46,SSW,207,0.0,0.0,84,0.00,,,0.00,LWC V2.00 B2112,2013-02-22 14:39:00,
2013-02-22 05:44:00,-8.6,-12.1,29.45,SSW,207,0.0,0.0,84,0.00,,,0.00,LWC V2.00 B2112,2013-02-22 14:44:00,
2013-02-22 05:49:00,-8.6,-12.1,29.46,SSW,207,0.0,0.0,84,0.00,,,0.00,LWC V2.00 B2112,2013-02-22 14:49:00,
2013-02-22 05:54:00,-8.5,-12.0,29.46,SSW,208,0.0,0.0,84,0.00,,,0.00,LWC V2.00 B2112,2013-02-22 14:54:00,
2013-02-22 05:59:00,-8.6,-12.1,29.46,SSW,207,0.0,0.0,84,0.00,,,0.00,LWC V2.00 B2112,2013-02-22 14:59:00,
2013-02-22 06:04:00,-8.4,-11.9,29.46,SSW,207,0.0,0.0,84,0.00,,,0.00,LWC V2.00 B2112,2013-02-22 15:04:00,
2013-02-22 06:09:00,-8.4,-11.9,29.46,SSW,207,0.0,0.0,84,0.00,,,0.00,LWC V2.00 B2112,2013-02-22 15:09:00,
2013-02-22 06:14:00,-8.4,-11.9,29.47,SSW,207,0.0,0.0,84,0.00,,,0.00,LWC V2.00 B2112,2013-02-22 15:14:00,
2013-02-22 06:19:00,-8.4,-11.9,29.47,SSW,207,0.0,0.0,84,0.00,,,0.00,LWC V2.00 B2112,2013-02-22 15:19:00,
2013-02-22 06:24:00,-8.4,-11.9,29.47,SSW,207,0.0,0.0,84,0.00,,,0.00,LWC V2.00 B2112,2013-02-22 15:24:00,
2013-02-22 06:29:00,-8.5,-12.0,29.47,SSW,207,0.0,0.0,84,0.00,,,0.00,LWC V2.00 B2112,2013-02-22 15:29:00,
2013-02-22 06:34:00,-8.5,-12.0,29.47,SSW,207,0.0,0.0,84,0.00,,,0.00,LWC V2.00 B2112,2013-02-22 15:34:00,
2013-02-22 06:39:00,-8.5,-12.0,29.48,SSW,207,0.0,0.0,84,0.00,,,0.00,LWC V2.00 B2112,2013-02-22 15:39:00,
2013-02-22 06:49:00,-8.4,-11.9,29.47,SSW,207,0.0,0.0,84,0.00,,,0.00,LWC V2.00 B2112,2013-02-22 15:49:00,
2013-02-22 06:54:00,-8.3,-11.8,29.48,SSW,205,0.0,0.0,84,0.00,,,0.00,LWC V2.00 B2112,2013-02-22 15:54:00,
2013-02-22 06:59:00,-8.3,-11.8,29.48,SSW,205,0.0,0.0,84,0.00,,,0.00,LWC V2.00 B2112,2013-02-22 15:59:00,
2013-02-22 07:04:00,-8.4,-11.9,29.48,SSW,205,0.0,0.0,84,0.00,,,0.00,LWC V2.00 B2112,2013-02-22 16:04:00,
2013-02-22 07:09:00,-8.5,-12.0,29.49,SSW,205,0.0,0.0,84,0.00,,,0.00,LWC V2.00 B2112,2013-02-22 16:09:00,
2013-02-22 07:14:00,-8.5,-12.0,29.49,SSW,205,0.0,0.0,84,0.00,,,0.00,LWC V2.00 B2112,2013-02-22 16:14:00,
2013-02-22 07:19:00,-8.6,-12.1,29.49,SSW,205,0.0,0.0,84,0.00,,,0.00,LWC V2.00 B2112,2013-02-22 16:19:00,
2013-02-22 07:24:00,-8.6,-12.1,29.49,SSW,205,0.0,0.0,84,0.00,,,0.00,LWC V2.00 B2112,2013-02-22 16:24:00,
2013-02-22 07:29:00,-8.6,-12.1,29.49,SSW,205,0.0,0.0,84,0.00,,,0.00,LWC V2.00 B2112,2013-02-22 16:29:00,
2013-02-22 07:34:00,-8.6,-12.1,29.49,SSW,205,0.0,0.0,84,0.00,,,0.00,LWC V2.00 B2112,2013-02-22 16:34:00,
2013-02-22 07:39:00,-8.6,-12.1,29.49,SSW,205,0.0,0.0,84,0.00,,,0.00,LWC V2.00 B2112,2013-02-22 16:39:00,
2013-02-22 07:44:00,-8.7,-12.4,29.49,SSW,205,0.0,0.0,83,0.00,,,0.00,LWC V2.00 B2112,2013-02-22 16:44:00,
2013-02-22 07:49:00,-8.8,-12.5,29.50,SSW,205,0.0,0.0,83,0.00,,,0.00,LWC V2.00 B2112,2013-02-22 16:49:00,
2013-02-22 07:54:00,-8.9,-12.6,29.50,SSW,205,0.0,0.0,83,0.00,,,0.00,LWC V2.00 B2112,2013-02-22 16:54:00,
2013-02-22 07:59:00,-8.9,-12.4,29.50,SSW,205,0.0,0.0,84,0.00,,,0.00,LWC V2.00 B2112,2013-02-22 16:59:00,
2013-02-22 08:04:00,-9.0,-12.7,29.50,SSW,205,0.0,0.0,83,0.00,,,0.00,LWC V2.00 B2112,2013-02-22 17:04:00,
2013-02-22 08:09:00,-9.0,-12.5,29.50,SSW,205,0.0,0.0,84,0.00,,,0.00,LWC V2.00 B2112,2013-02-22 17:09:00,
2013-02-22 08:14:00,-9.0,-12.5,29.50,SSW,205,0.0,0.0,84,0.00,,,0.00,LWC V2.00 B2112,2013-02-22 17:14:00,
2013-02-22 08:19:00,-8.9,-12.4,29.50,SSW,205,0.0,0.0,84,0.00,,,0.00,LWC V2.00 B2112,2013-02-22 17:19:00,
2013-02-22 08:24:00,-8.8,-12.3,29.50,SSW,205,0.0,0.0,84,0.00,,,0.00,LWC V2.00 B2112,2013-02-22 17:24:00,
2013-02-22 08:29:00,-8.7,-12.2,29.50,SSW,205,0.0,0.0,84,0.00,,,0.00,LWC V2.00 B2112,2013-02-22 17:29:00,
2013-02-22 08:34:00,-8.7,-12.2,29.51,SE,130,0.0,0.0,84,0.00,,,0.00,LWC V2.00 B2112,2013-02-22 17:34:00,
2013-02-22 08:39:00,-8.6,-12.3,29.51,SE,129,0.0,0.0,83,0.00,,,0.00,LWC V2.00 B2112,2013-02-22 17:39:00,
2013-02-22 08:44:00,-8.6,-12.3,29.51,SE,130,0.0,0.0,83,0.00,,,0.00,LWC V2.00 B2112,2013-02-22 17:44:00,
2013-02-22 08:49:00,-8.6,-12.3,29.51,SE,132,0.0,0.0,83,0.00,,,0.00,LWC V2.00 B2112,2013-02-22 17:49:00,
2013-02-22 08:54:00,-8.6,-12.3,29.51,SE,132,0.0,0.0,83,0.00,,,0.00,LWC V2.00 B2112,2013-02-22 17:54:00,
2013-02-22 08:59:00,-8.6,-12.3,29.51,SE,132,0.0,0.0,83,0.00,,,0.00,LWC V2.00 B2112,2013-02-22 17:59:00,
2013-02-22 09:04:00,-8.5,-12.2,29.51,SE,132,0.0,0.0,83,0.00,,,0.00,LWC V2.00 B2112,2013-02-22 18:04:00,
2013-02-22 09:09:00,-8.4,-12.1,29.52,SE,132,0.0,0.0,83,0.00,,,0.00,LWC V2.00 B2112,2013-02-22 18:09:00,
2013-02-22 09:14:00,-8.3,-12.1,29.52,SE,132,0.0,0.0,83,0.00,,,0.00,LWC V2.00 B2112,2013-02-22 18:14:00,
2013-02-22 09:19:00,-8.2,-12.2,29.52,SE,132,0.0,0.0,82,0.00,,,0.00,LWC V2.00 B2112,2013-02-22 18:19:00,
2013-02-22 09:24:00,-8.1,-12.1,29.53,SE,132,0.0,0.0,82,0.00,,,0.00,LWC V2.00 B2112,2013-02-22 18:24:00,
2013-02-22 09:29:00,-8.0,-12.0,29.53,SE,130,0.0,0.0,82,0.00,,,0.00,LWC V2.00 B2112,2013-02-22 18:29:00,
2013-02-22 09:34:00,-8.0,-12.0,29.52,SE,130,0.0,0.0,82,0.00,,,0.00,LWC V2.00 B2112,2013-02-22 18:34:00,
2013-02-22 09:39:00,-8.0,-12.0,29.53,ESE,122,0.0,0.0,82,0.00,,,0.00,LWC V2.00 B2112,2013-02-22 18:39:00,
2013-02-22 09:44:00,-7.8,-11.8,29.53,ESE,122,0.0,0.0,82,0.00,,,0.00,LWC V2.00 B2112,2013-02-22 18:44:00,
2013-02-22 09:49:00,-7.7,-11.7,29.53,ESE,121,0.0,0.0,82,0.00,,,0.00,LWC V2.00 B2112,2013-02-22 18:49:00,
2013-02-22 09:54:00,-7.6,-11.9,29.53,ESE,121,0.0,0.0,81,0.00,,,0.00,LWC V2.00 B2112,2013-02-22 18:54:00,
2013-02-22 09:59:00,-7.6,-11.9,29.53,ESE,123,0.0,0.0,81,0.00,,,0.00,LWC V2.00 B2112,2013-02-22 18:59:00,
2013-02-22 10:04:00,-7.4,-11.7,29.53,SE,129,0.0,0.0,81,0.00,,,0.00,LWC V2.00 B2112,2013-02-22 19:04:00,
2013-02-22 10:09:00,-7.2,-11.5,29.53,SSE,155,0.0,0.0,81,0.00,,,0.00,LWC V2.00 B2112,2013-02-22 19:09:00,
2013-02-22 10:14:00,-7.1,-11.4,29.54,ESE,109,0.0,0.0,81,0.00,,,0.00,LWC V2.00 B2112,2013-02-22 19:14:00,
2013-02-22 10:19:00,-6.9,-11.2,29.54,SSE,167,0.0,0.0,81,0.00,,,0.00,LWC V2.00 B2112,2013-02-22 19:19:00,
2013-02-22 10:24:00,-6.7,-11.0,29.54,ESE,115,0.0,0.0,81,0.00,,,0.00,LWC V2.00 B2112,2013-02-22 19:24:00,
2013-02-22 10:29:00,-6.7,-11.0,29.54,ESE,102,0.0,0.0,81,0.00,,,0.00,LWC V2.00 B2112,2013-02-22 19:29:00,
2013-02-22 10:34:00,-6.9,-11.4,29.54,East,90,0.0,0.0,80,0.00,,,0.00,LWC V2.00 B2112,2013-02-22 19:34:00,
2013-02-22 10:39:00,-7.0,-11.3,29.54,ESE,112,0.0,0.0,81,0.00,,,0.00,LWC V2.00 B2112,2013-02-22 19:39:00,
2013-02-22 10:44:00,-6.7,-11.0,29.54,ESE,112,0.0,0.0,81,0.00,,,0.00,LWC V2.00 B2112,2013-02-22 19:44:00,
2013-02-22 10:49:00,-6.4,-10.9,29.54,SE,138,0.0,0.0,80,0.00,,,0.00,LWC V2.00 B2112,2013-02-22 19:49:00,
2013-02-22 10:54:00,-6.2,-10.7,29.54,ESE,107,0.0,0.0,80,0.00,,,0.00,LWC V2.00 B2112,2013-02-22 19:54:00,
2013-02-22 10:59:00,-6.1,-10.6,29.55,SSE,155,0.0,0.0,80,0.00,,,0.00,LWC V2.00 B2112,2013-02-22 19:59:00,
2013-02-22 11:04:00,-5.9,-10.4,29.55,SSE,159,0.0,0.0,80,0.00,,,0.00,LWC V2.00 B2112,2013-02-22 20:04:00,
2013-02-22 11:09:00,-5.9,-10.7,29.55,SE,138,0.0,0.0,79,0.00,,,0.00,LWC V2.00 B2112,2013-02-22 20:09:00,
2013-02-22 11:14:00,-5.9,-10.9,29.55,East,88,0.0,0.0,78,0.00,,,0.00,LWC V2.00 B2112,2013-02-22 20:14:00,
2013-02-22 11:19:00,-5.9,-10.9,29.55,ESE,118,0.0,0.0,78,0.00,,,0.00,LWC V2.00 B2112,2013-02-22 20:19:00,
2013-02-22 11:24:00,-5.6,-10.4,29.55,SE,132,0.0,0.0,79,0.00,,,0.00,LWC V2.00 B2112,2013-02-22 20:24:00,
2013-02-22 11:29:00,-5.6,-10.7,29.55,SE,134,0.0,0.0,78,0.00,,,0.00,LWC V2.00 B2112,2013-02-22 20:29:00,
2013-02-22 11:34:00,-5.6,-10.7,29.55,SE,127,0.0,0.0,78,0.00,,,0.00,LWC V2.00 B2112,2013-02-22 20:34:00,
2013-02-22 11:39:00,-5.7,-10.8,29.55,ESE,105,0.0,0.0,78,0.00,,,0.00,LWC V2.00 B2112,2013-02-22 20:39:00,
2013-02-22 11:44:00,-5.6,-10.7,29.56,ESE,103,0.0,0.0,78,0.00,,,0.00,LWC V2.00 B2112,2013-02-22 20:44:00,
2013-02-22 11:49:00,-5.8,-10.8,29.56,ESE,109,0.0,0.0,78,0.00,,,0.00,LWC V2.00 B2112,2013-02-22 20:49:00,
2013-02-22 11:54:00,-5.7,-10.8,29.56,SSE,164,0.0,0.0,78,0.00,,,0.00,LWC V2.00 B2112,2013-02-22 20:54:00,
2013-02-22 11:59:00,-5.5,-10.3,29.56,East,85,0.0,0.0,79,0.00,,,0.00,LWC V2.00 B2112,2013-02-22 20:59:00,
2013-02-22 12:04:00,-5.6,-10.4,29.56,ESE,117,0.0,0.0,79,0.00,,,0.00,LWC V2.00 B2112,2013-02-22 21:04:00,
2013-02-22 12:09:00,-5.6,-10.7,29.56,SE,142,0.0,0.0,78,0.00,,,0.00,LWC V2.00 B2112,2013-02-22 21:09:00,
2013-02-22 12:14:00,-5.6,-10.7,29.56,ESE,108,0.0,0.0,78,0.00,,,0.00,LWC V2.00 B2112,2013-02-22 21:14:00,
2013-02-22 12:19:00,-5.6,-10.7,29.56,East,96,0.0,0.0,78,0.00,,,0.00,LWC V2.00 B2112,2013-02-22 21:19:00,
2013-02-22 12:24:00,-5.8,-10.8,29.56,ESE,110,0.0,0.0,78,0.00,,,0.00,LWC V2.00 B2112,2013-02-22 21:24:00,
2013-02-22 12:29:00,-5.6,-10.7,29.56,SSE,150,0.0,0.0,78,0.00,,,0.00,LWC V2.00 B2112,2013-02-22 21:29:00,
2013-02-22 12:34:00,-5.6,-10.9,29.57,SSE,161,0.0,0.0,77,0.00,,,0.00,LWC V2.00 B2112,2013-02-22 21:34:00,
2013-02-22 12:39:00,-5.4,-10.7,29.57,ESE,112,0.0,0.0,77,0.00,,,0.00,LWC V2.00 B2112,2013-02-22 21:39:00,
2013-02-22 12:44:00,-5.3,-10.6,29.57,SSE,159,0.0,0.0,77,0.00,,,0.00,LWC V2.00 B2112,2013-02-22 21:44:00,
2013-02-22 12:49:00,-5.1,-10.4,29.57,ESE,113,0.0,0.0,77,0.00,,,0.00,LWC V2.00 B2112,2013-02-22 21:49:00,
2013-02-22 12:54:00,-4.8,-10.4,29.57,East,98,0.0,0.0,76,0.00,,,0.00,LWC V2.00 B2112,2013-02-22 21:54:00,
2013-02-22 12:59:00,-4.8,-10.4,29.57,East,101,0.0,0.0,76,0.00,,,0.00,LWC V2.00 B2112,2013-02-22 21:59:00,
2013-02-22 13:04:00,-4.9,-10.5,29.57,SE,132,0.0,0.0,76,0.00,,,0.00,LWC V2.00 B2112,2013-02-22 22:04:00,
2013-02-22 13:09:00,-5.1,-10.7,29.57,ESE,117,0.0,0.0,76,0.00,,,0.00,LWC V2.00 B2112,2013-02-22 22:09:00,
2013-02-22 13:14:00,-5.0,-10.6,29.58,SE,140,0.0,0.0,76,0.00,,,0.00,LWC V2.00 B2112,2013-02-22 22:14:00,
2013-02-22 13:19:00,-5.2,-11.1,29.58,ESE,114,0.0,0.0,75,0.00,,,0.00,LWC V2.00 B2112,2013-02-22 22:19:00,
2013-02-22 13:24:00,-5.2,-11.1,29.58,ESE,112,0.0,0.0,75,0.00,,,0.00,LWC V2.00 B2112,2013-02-22 22:24:00,
2013-02-22 13:29:00,-5.2,-11.1,29.58,SE,126,0.0,0.0,75,0.00,,,0.00,LWC V2.00 B2112,2013-02-22 22:29:00,
2013-02-22 13:34:00,-5.0,-10.9,29.58,SE,126,0.0,0.0,75,0.00,,,0.00,LWC V2.00 B2112,2013-02-22 22:34:00,
2013-02-22 13:39:00,-5.0,-10.9,29.58,ESE,109,0.0,0.0,75,0.00,,,0.00,LWC V2.00 B2112,2013-02-22 22:39:00,
2013-02-22 13:44:00,-5.0,-10.9,29.58,SSE,150,0.0,0.0,75,0.00,,,0.00,LWC V2.00 B2112,2013-02-22 22:44:00,
2013-02-22 13:49:00,-4.9,-11.0,29.58,ENE,76,0.0,0.0,74,0.00,,,0.00,LWC V2.00 B2112,2013-02-22 22:49:00,
2013-02-22 13:54:00,-4.6,-10.7,29.58,South,172,0.0,0.0,74,0.00,,,0.00,LWC V2.00 B2112,2013-02-22 22:54:00,
2013-02-22 13:59:00,-4.5,-10.6,29.58,SE,143,0.0,0.0,74,0.00,,,0.00,LWC V2.00 B2112,2013-02-22 22:59:00,
2013-02-22 14:04:00,-4.5,-10.6,29.58,SE,127,0.0,0.0,74,0.00,,,0.00,LWC V2.00 B2112,2013-02-22 23:04:00,
2013-02-22 14:09:00,-4.5,-10.4,29.58,SE,140,0.0,0.0,75,0.00,,,0.00,LWC V2.00 B2112,2013-02-22 23:09:00,
2013-02-22 14:14:00,-4.5,-10.4,29.58,ENE,73,0.0,0.0,75,0.00,,,0.00,LWC V2.00 B2112,2013-02-22 23:14:00,
2013-02-22 14:19:00,-4.7,-10.6,29.58,East,98,0.0,0.0,75,0.00,,,0.00,LWC V2.00 B2112,2013-02-22 23:19:00,
2013-02-22 14:24:00,-4.9,-10.8,29.58,SE,140,0.0,0.0,75,0.00,,,0.00,LWC V2.00 B2112,2013-02-22 23:24:00,
2013-02-22 14:29:00,-4.9,-10.5,29.58,SSW,196,0.0,0.0,76,0.00,,,0.00,LWC V2.00 B2112,2013-02-22 23:29:00,
2013-02-22 14:34:00,-4.6,-10.5,29.58,East,99,0.0,0.0,75,0.00,,,0.00,LWC V2.00 B2112,2013-02-22 23:34:00,
2013-02-22 14:39:00,-4.6,-10.7,29.59,NE,52,0.0,0.0,74,0.00,,,0.00,LWC V2.00 B2112,2013-02-22 23:39:00,
2013-02-22 14:44:00,-4.7,-10.8,29.59,South,190,0.0,0.0,74,0.00,,,0.00,LWC V2.00 B2112,2013-02-22 23:44:00,
2013-02-22 14:49:00,-4.6,-10.7,29.59,East,96,0.0,0.0,74,0.00,,,0.00,LWC V2.00 B2112,2013-02-22 23:49:00,
2013-02-22 14:54:00,-4.6,-10.7,29.59,ENE,66,0.0,0.0,74,0.00,,,0.00,LWC V2.00 B2112,2013-02-22 23:54:00,
2013-02-22 14:59:00,-4.5,-10.6,29.59,ESE,117,0.0,0.0,74,0.00,,,0.00,LWC V2.00 B2112,2013-02-22 23:59:00,
2013-02-22 15:04:00,-4.4,-10.5,29.59,East,100,0.0,0.0,74,0.00,,,0.00,LWC V2.00 B2112,2013-02-23 00:04:00,
2013-02-22 15:09:00,-4.2,-10.4,29.59,East,92,0.0,0.0,74,0.00,,,0.00,LWC V2.00 B2112,2013-02-23 00:09:00,
2013-02-22 15:14:00,-4.4,-10.5,29.59,East,94,0.0,0.0,74,0.00,,,0.00,LWC V2.00 B2112,2013-02-23 00:14:00,
2013-02-22 15:19:00,-4.2,-10.4,29.59,ENE,74,0.0,0.0,74,0.00,,,0.00,LWC V2.00 B2112,2013-02-23 00:19:00,
2013-02-22 15:24:00,-4.3,-10.4,29.59,NNW,348,0.0,0.0,74,0.00,,,0.00,LWC V2.00 B2112,2013-02-23 00:24:00,
2013-02-22 15:29:00,-4.3,-10.2,29.59,SSE,147,0.0,0.0,75,0.00,,,0.00,LWC V2.00 B2112,2013-02-23 00:29:00,
2013-02-22 15:34:00,-4.2,-10.1,29.59,ENE,77,0.0,0.0,75,0.00,,,0.00,LWC V2.00 B2112,2013-02-23 00:34:00,
2013-02-22 15:39:00,-4.2,-10.4,29.59,SE,126,0.0,0.0,74,0.00,,,0.00,LWC V2.00 B2112,2013-02-23 00:39:00,
2013-02-22 15:44:00,-4.1,-10.3,29.60,ESE,119,0.0,0.0,74,0.00,,,0.00,LWC V2.00 B2112,2013-02-23 00:44:00,
2013-02-22 15:49:00,-4.4,-10.5,29.59,SE,133,0.0,0.0,74,0.00,,,0.00,LWC V2.00 B2112,2013-02-23 00:49:00,
2013-02-22 15:54:00,-4.5,-10.6,29.59,East,96,0.0,0.0,74,0.00,,,0.00,LWC V2.00 B2112,2013-02-23 00:54:00,
2013-02-22 15:59:00,-4.7,-10.8,29.60,East,90,0.0,0.0,74,0.00,,,0.00,LWC V2.00 B2112,2013-02-23 00:59:00,
2013-02-22 16:04:00,-5.0,-10.9,29.60,ESE,105,0.0,0.0,75,0.00,,,0.00,LWC V2.00 B2112,2013-02-23 01:04:00,
2013-02-22 16:09:00,-5.1,-10.7,29.60,ESE,105,0.0,0.0,76,0.00,,,0.00,LWC V2.00 B2112,2013-02-23 01:09:00,
2013-02-22 16:14:00,-5.3,-10.9,29.60,ESE,105,0.0,0.0,76,0.00,,,0.00,LWC V2.00 B2112,2013-02-23 01:14:00,
2013-02-22 16:19:00,-5.4,-11.0,29.60,ESE,105,0.0,0.0,76,0.00,,,0.00,LWC V2.00 B2112,2013-02-23 01:19:00,
2013-02-22 16:24:00,-5.6,-11.2,29.60,ESE,105,0.0,0.0,76,0.00,,,0.00,LWC V2.00 B2112,2013-02-23 01:24:00,
2013-02-22 16:29:00,-5.9,-11.2,29.60,SE,130,0.0,0.0,77,0.00,,,0.00,LWC V2.00 B2112,2013-02-23 01:29:00,
2013-02-22 16:34:00,-6.1,-11.4,29.60,SE,129,0.0,0.0,77,0.00,,,0.00,LWC V2.00 B2112,2013-02-23 01:34:00,
2013-02-22 16:39:00,-6.2,-11.5,29.60,SE,129,0.0,0.0,77,0.00,,,0.00,LWC V2.00 B2112,2013-02-23 01:39:00,
2013-02-22 16:44:00,-6.8,-12.3,29.60,SE,130,0.0,0.0,76,0.00,,,0.00,LWC V2.00 B2112,2013-02-23 01:44:00,
2013-02-22 16:49:00,-7.3,-12.6,29.61,SE,130,0.0,0.0,77,0.00,,,0.00,LWC V2.00 B2112,2013-02-23 01:49:00,
2013-02-22 16:54:00,-8.0,-13.5,29.60,SE,130,0.0,0.0,76,0.00,,,0.00,LWC V2.00 B2112,2013-02-23 01:54:00,
2013-02-22 16:59:00,-8.8,-14.0,29.61,SE,130,0.0,0.0,77,0.00,,,0.00,LWC V2.00 B2112,2013-02-23 01:59:00,
2013-02-22 17:04:00,-9.3,-14.5,29.61,SE,129,0.0,0.0,77,0.00,,,0.00,LWC V2.00 B2112,2013-02-23 02:04:00,
2013-02-22 17:09:00,-9.4,-14.1,29.60,SE,130,0.0,0.0,79,0.00,,,0.00,LWC V2.00 B2112,2013-02-23 02:09:00,
2013-02-22 17:14:00,-9.5,-14.2,29.60,SE,130,0.0,0.0,79,0.00,,,0.00,LWC V2.00 B2112,2013-02-23 02:14:00,
2013-02-22 17:19:00,-9.6,-14.1,29.60,SE,130,0.0,0.0,80,0.00,,,0.00,LWC V2.00 B2112,2013-02-23 02:19:00,
2013-02-22 17:24:00,-9.8,-14.5,29.60,SE,130,0.0,0.0,79,0.00,,,0.00,LWC V2.00 B2112,2013-02-23 02:24:00,
2013-02-22 17:29:00,-10.0,-14.4,29.60,SE,130,0.0,0.0,80,0.00,,,0.00,LWC V2.00 B2112,2013-02-23 02:29:00,
2013-02-22 17:34:00,-10.2,-14.6,29.60,SE,129,0.0,0.0,80,0.00,,,0.00,LWC V2.00 B2112,2013-02-23 02:34:00,
2013-02-22 17:39:00,-10.5,-14.7,29.60,SE,129,0.0,0.0,81,0.00,,,0.00,LWC V2.00 B2112,2013-02-23 02:39:00,
2013-02-22 17:44:00,-10.9,-15.3,29.60,SE,130,0.0,0.0,80,0.00,,,0.00,LWC V2.00 B2112,2013-02-23 02:44:00,
2013-02-22 17:49:00,-11.9,-16.5,29.60,SE,130,0.0,0.0,79,0.00,,,0.00,LWC V2.00 B2112,2013-02-23 02:49:00,
2013-02-22 17:54:00,-12.4,-16.8,29.60,SE,130,0.0,0.0,80,0.00,,,0.00,LWC V2.00 B2112,2013-02-23 02:54:00,
2013-02-22 17:59:00,-12.7,-17.1,29.60,SE,129,0.0,0.0,80,0.00,,,0.00,LWC V2.00 B2112,2013-02-23 02:59:00,
2013-02-22 18:04:00,-13.0,-17.4,29.60,SE,130,0.0,0.0,80,0.00,,,0.00,LWC V2.00 B2112,2013-02-23 03:04:00,
2013-02-22 18:09:00,-13.4,-17.8,29.61,SE,129,0.0,0.0,80,0.00,,,0.00,LWC V2.00 B2112,2013-02-23 03:09:00,
2013-02-22 18:14:00,-13.7,-18.1,29.61,SE,130,0.0,0.0,80,0.00,,,0.00,LWC V2.00 B2112,2013-02-23 03:14:00,
2013-02-22 18:19:00,-14.4,-19.0,29.60,SE,129,0.0,0.0,79,0.00,,,0.00,LWC V2.00 B2112,2013-02-23 03:19:00,
2013-02-22 18:24:00,-14.4,-18.5,29.60,SE,129,0.0,0.0,81,0.00,,,0.00,LWC V2.00 B2112,2013-02-23 03:24:00,
2013-02-22 18:29:00,-14.5,-18.6,29.60,SE,130,0.0,0.0,81,0.00,,,0.00,LWC V2.00 B2112,2013-02-23 03:29:00,
2013-02-22 18:34:00,-14.8,-19.1,29.60,SE,130,0.0,0.0,80,0.00,,,0.00,LWC V2.00 B2112,2013-02-23 03:34:00,
2013-02-22 18:39:00,-14.8,-18.9,29.60,SE,130,0.0,0.0,81,0.00,,,0.00,LWC V2.00 B2112,2013-02-23 03:39:00,
2013-02-22 18:44:00,-14.5,-18.4,29.60,SE,130,0.0,0.0,82,0.00,,,0.00,LWC V2.00 B2112,2013-02-23 03:44:00,
2013-02-22 18:49:00,-14.5,-18.4,29.60,SE,130,0.0,0.0,82,0.00,,,0.00,LWC V2.00 B2112,2013-02-23 03:49:00,
2013-02-22 18:54:00,-14.6,-18.7,29.60,SE,130,0.0,0.0,81,0.00,,,0.00,LWC V2.00 B2112,2013-02-23 03:54:00,
2013-02-22 18:59:00,-14.8,-18.9,29.60,SE,130,0.0,0.0,81,0.00,,,0.00,LWC V2.00 B2112,2013-02-23 03:59:00,
2013-02-22 19:04:00,-15.3,-19.6,29.60,SE,130,0.0,0.0,80,0.00,,,0.00,LWC V2.00 B2112,2013-02-23 04:04:00,
2013-02-22 19:09:00,-15.6,-19.9,29.60,SE,129,0.0,0.0,80,0.00,,,0.00,LWC V2.00 B2112,2013-02-23 04:09:00,
2013-02-22 19:14:00,-15.4,-19.5,29.60,SE,130,0.0,0.0,81,0.00,,,0.00,LWC V2.00 B2112,2013-02-23 04:14:00,
2013-02-22 19:19:00,-15.1,-19.0,29.61,SE,129,0.0,0.0,82,0.00,,,0.00,LWC V2.00 B2112,2013-02-23 04:19:00,
2013-02-22 19:24:00,-15.3,-19.4,29.60,SE,130,0.0,0.0,81,0.00,,,0.00,LWC V2.00 B2112,2013-02-23 04:24:00,
2013-02-22 19:29:00,-15.4,-19.5,29.60,SE,130,0.0,0.0,81,0.00,,,0.00,LWC V2.00 B2112,2013-02-23 04:29:00,
2013-02-22 19:34:00,-15.2,-19.1,29.60,SE,130,0.0,0.0,82,0.00,,,0.00,LWC V2.00 B2112,2013-02-23 04:34:00,
2013-02-22 19:39:00,-15.6,-19.7,29.60,SE,130,0.0,0.0,81,0.00,,,0.00,LWC V2.00 B2112,2013-02-23 04:39:00,
2013-02-22 19:44:00,-16.1,-20.4,29.60,SE,130,0.0,0.0,80,0.00,,,0.00,LWC V2.00 B2112,2013-02-23 04:44:00,
2013-02-22 19:49:00,-16.4,-20.7,29.60,SE,129,0.0,0.0,80,0.00,,,0.00,LWC V2.00 B2112,2013-02-23 04:49:00,
2013-02-22 19:54:00,-16.7,-21.0,29.60,SE,129,0.0,0.0,80,0.00,,,0.00,LWC V2.00 B2112,2013-02-23 04:54:00,
2013-02-22 19:59:00,-16.7,-20.8,29.60,SE,130,0.0,0.0,81,0.00,,,0.00,LWC V2.00 B2112,2013-02-23 04:59:00,
2013-02-22 20:04:00,-16.7,-20.8,29.60,SE,130,0.0,0.0,81,0.00,,,0.00,LWC V2.00 B2112,2013-02-23 05:04:00,
2013-02-22 20:09:00,-16.7,-20.8,29.59,SE,130,0.0,0.0,81,0.00,,,0.00,LWC V2.00 B2112,2013-02-23 05:09:00,
2013-02-22 20:14:00,-16.9,-21.0,29.60,SE,129,0.0,0.0,81,0.00,,,0.00,LWC V2.00 B2112,2013-02-23 05:14:00,
2013-02-22 20:19:00,-16.9,-21.0,29.60,SE,130,0.0,0.0,81,0.00,,,0.00,LWC V2.00 B2112,2013-02-23 05:19:00,
2013-02-22 20:24:00,-16.5,-20.3,29.59,SE,130,0.0,0.0,82,0.00,,,0.00,LWC V2.00 B2112,2013-02-23 05:24:00,
2013-02-22 20:29:00,-16.3,-20.1,29.59,SE,130,0.0,0.0,82,0.00,,,0.00,LWC V2.00 B2112,2013-02-23 05:29:00,
2013-02-22 20:34:00,-16.6,-20.7,29.59,SE,130,0.0,0.0,81,0.00,,,0.00,LWC V2.00 B2112,2013-02-23 05:34:00,
2013-02-22 20:39:00,-16.9,-21.0,29.58,SE,130,0.0,0.0,81,0.00,,,0.00,LWC V2.00 B2112,2013-02-23 05:39:00,
2013-02-22 20:44:00,-16.7,-20.5,29.58,SE,130,0.0,0.0,82,0.00,,,0.00,LWC V2.00 B2112,2013-02-23 05:44:00,
2013-02-22 20:49:00,-16.3,-19.9,29.58,SE,129,0.0,0.0,83,0.00,,,0.00,LWC V2.00 B2112,2013-02-23 05:49:00,
2013-02-22 20:54:00,-16.3,-20.1,29.58,SE,130,0.0,0.0,82,0.00,,,0.00,LWC V2.00 B2112,2013-02-23 05:54:00,
2013-02-22 20:59:00,-16.2,-20.0,29.58,SE,130,0.0,0.0,82,0.00,,,0.00,LWC V2.00 B2112,2013-02-23 05:59:00,
2013-02-22 21:04:00,-16.5,-20.6,29.58,SE,129,0.0,0.0,81,0.00,,,0.00,LWC V2.00 B2112,2013-02-23 06:04:00,
2013-02-22 21:09:00,-16.3,-20.1,29.58,SE,129,0.0,0.0,82,0.00,,,0.00,LWC V2.00 B2112,2013-02-23 06:09:00,
2013-02-22 21:14:00,-16.2,-20.0,29.58,SE,130,0.0,0.0,82,0.00,,,0.00,LWC V2.00 B2112,2013-02-23 06:14:00,
2013-02-22 21:19:00,-16.0,-19.6,29.57,SE,130,0.0,0.0,83,0.00,,,0.00,LWC V2.00 B2112,2013-02-23 06:19:00,
2013-02-22 21:24:00,-16.2,-20.0,29.57,SE,130,0.0,0.0,82,0.00,,,0.00,LWC V2.00 B2112,2013-02-23 06:24:00,
2013-02-22 21:34:00,-17.4,-21.7,29.58,SE,129,0.0,0.0,80,0.00,,,0.00,LWC V2.00 B2112,2013-02-23 06:34:00,
2013-02-22 21:39:00,-17.7,-22.0,29.58,SE,130,0.0,0.0,80,0.00,,,0.00,LWC V2.00 B2112,2013-02-23 06:39:00,
2013-02-22 21:44:00,-17.6,-21.6,29.57,SE,130,0.0,0.0,81,0.00,,,0.00,LWC V2.00 B2112,2013-02-23 06:44:00,
2013-02-22 21:49:00,-18.0,-22.3,29.57,SE,129,0.0,0.0,80,0.00,,,0.00,LWC V2.00 B2112,2013-02-23 06:49:00,
2013-02-22 21:54:00,-18.2,-22.5,29.57,SE,129,0.0,0.0,80,0.00,,,0.00,LWC V2.00 B2112,2013-02-23 06:54:00,
2013-02-22 21:59:00,-18.0,-22.0,29.57,SE,130,0.0,0.0,81,0.00,,,0.00,LWC V2.00 B2112,2013-02-23 06:59:00,
2013-02-22 22:04:00,-17.8,-21.8,29.57,SE,130,0.0,0.0,81,0.00,,,0.00,LWC V2.00 B2112,2013-02-23 07:04:00,
2013-02-22 22:09:00,-17.7,-21.7,29.57,SW,236,0.0,0.0,81,0.00,,,0.00,LWC V2.00 B2112,2013-02-23 07:09:00,
2013-02-22 22:14:00,-17.9,-21.9,29.57,West,260,0.0,0.0,81,0.00,,,0.00,LWC V2.00 B2112,2013-02-23 07:14:00,
2013-02-22 22:19:00,-18.0,-22.0,29.57,West,259,0.0,0.0,81,0.00,,,0.00,LWC V2.00 B2112,2013-02-23 07:19:00,
2013-02-22 22:24:00,-18.0,-22.0,29.56,West,261,0.0,0.0,81,0.00,,,0.00,LWC V2.00 B2112,2013-02-23 07:24:00,
2013-02-22 22:29:00,-17.6,-21.4,29.57,West,261,0.0,0.0,82,0.00,,,0.00,LWC V2.00 B2112,2013-02-23 07:29:00,
2013-02-22 22:34:00,-17.4,-21.2,29.57,West,261,0.0,0.0,82,0.00,,,0.00,LWC V2.00 B2112,2013-02-23 07:34:00,
2013-02-22 22:39:00,-17.3,-21.1,29.56,West,261,0.0,0.0,82,0.00,,,0.00,LWC V2.00 B2112,2013-02-23 07:39:00,
2013-02-22 22:44:00,-17.3,-21.1,29.56,West,261,0.0,0.0,82,0.00,,,0.00,LWC V2.00 B2112,2013-02-23 07:44:00,
2013-02-22 22:49:00,-17.3,-21.1,29.57,West,261,0.0,0.0,82,0.00,,,0.00,LWC V2.00 B2112,2013-02-23 07:49:00,
2013-02-22 22:54:00,-17.0,-20.8,29.57,West,261,0.0,0.0,82,0.00,,,0.00,LWC V2.00 B2112,2013-02-23 07:54:00,
2013-02-22 22:59:00,-16.8,-20.6,29.57,West,261,0.0,0.0,82,0.00,,,0.00,LWC V2.00 B2112,2013-02-23 07:59:00,
2013-02-22 23:04:00,-16.3,-19.9,29.57,West,261,0.0,0.0,83,0.00,,,0.00,LWC V2.00 B2112,2013-02-23 08:04:00,
2013-02-22 23:09:00,-15.7,-19.1,29.57,West,261,0.0,0.0,84,0.00,,,0.00,LWC V2.00 B2112,2013-02-23 08:09:00,
2013-02-22 23:14:00,-15.2,-18.6,29.57,West,261,0.0,0.0,84,0.00,,,0.00,LWC V2.00 B2112,2013-02-23 08:14:00,
2013-02-22 23:19:00,-14.7,-18.1,29.56,West,261,0.0,0.0,84,0.00,,,0.00,LWC V2.00 B2112,2013-02-23 08:19:00,
2013-02-22 23:24:00,-14.5,-18.1,29.56,West,261,0.0,0.0,83,0.00,,,0.00,LWC V2.00 B2112,2013-02-23 08:24:00,
2013-02-22 23:29:00,-14.5,-18.1,29.56,SE,130,0.0,0.0,83,0.00,,,0.00,LWC V2.00 B2112,2013-02-23 08:29:00,
2013-02-22 23:34:00,-14.7,-18.6,29.55,SE,129,0.0,0.0,82,0.00,,,0.00,LWC V2.00 B2112,2013-02-23 08:34:00,
2013-02-22 23:39:00,-14.6,-18.5,29.55,ESE,110,0.0,0.0,82,0.00,,,0.00,LWC V2.00 B2112,2013-02-23 08:39:00,
2013-02-22 23:44:00,-14.5,-18.1,29.55,ESE,111,0.0,0.0,83,0.00,,,0.00,LWC V2.00 B2112,2013-02-23 08:44:00,
2013-02-22 23:49:00,-14.3,-17.9,29.55,ESE,110,0.0,0.0,83,0.00,,,0.00,LWC V2.00 B2112,2013-02-23 08:49:00,
2013-02-22 23:54:00,-14.0,-17.6,29.55,ESE,111,0.0,0.0,83,0.00,,,0.00,LWC V2.00 B2112,2013-02-23 08:54:00,
2013-02-22 23:59:00,-13.7,-17.3,29.54,ESE,110,0.0,0.0,83,0.00,,,0.00,LWC V2.00 B2112,2013-02-23 08:59:00,